sensor_id;sensor_type;location;lat;lon;timestamp;P1;durP1;ratioP1;P2;durP2;ratioP2
39050;SDS011;24805;55.852;37.644;2022-08-20T00:01:10;23.38;;;13.80;;
39050;SDS011;24805;55.852;37.644;2022-08-20T00:06:13;19.33;;;13.02;;
39050;SDS011;24805;55.852;37.644;2022-08-20T00:11:20;28.20;;;16.25;;
39050;SDS011;24805;55.852;37.644;2022-08-20T00:16:31;27.25;;;15.77;;
39050;SDS011;24805;55.852;37.644;2022-08-20T00:21:35;29.50;;;17.98;;
39050;SDS011;24805;55.852;37.644;2022-08-20T00:26:38;25.05;;;16.73;;
39050;SDS011;24805;55.852;37.644;2022-08-20T00:31:53;23.55;;;16.83;;
39050;SDS011;24805;55.852;37.644;2022-08-20T00:36:55;23.67;;;16.40;;
39050;SDS011;24805;55.852;37.644;2022-08-20T00:41:57;25.33;;;16.30;;
39050;SDS011;24805;55.852;37.644;2022-08-20T00:47:00;23.10;;;16.85;;
39050;SDS011;24805;55.852;37.644;2022-08-20T00:52:07;24.70;;;15.80;;
39050;SDS011;24805;55.852;37.644;2022-08-20T00:57:21;28.58;;;16.23;;
39050;SDS011;24805;55.852;37.644;2022-08-20T01:02:50;23.75;;;15.82;;
39050;SDS011;24805;55.852;37.644;2022-08-20T01:07:53;25.67;;;15.27;;
39050;SDS011;24805;55.852;37.644;2022-08-20T01:12:57;20.77;;;14.77;;
39050;SDS011;24805;55.852;37.644;2022-08-20T01:18:00;24.50;;;14.98;;
39050;SDS011;24805;55.852;37.644;2022-08-20T01:33:44;21.50;;;13.97;;
39050;SDS011;24805;55.852;37.644;2022-08-20T01:38:47;20.83;;;13.95;;
39050;SDS011;24805;55.852;37.644;2022-08-20T01:43:56;19.80;;;14.45;;
39050;SDS011;24805;55.852;37.644;2022-08-20T01:48:59;21.52;;;14.73;;
39050;SDS011;24805;55.852;37.644;2022-08-20T01:54:17;22.90;;;14.98;;
39050;SDS011;24805;55.852;37.644;2022-08-20T01:59:20;19.83;;;14.48;;
39050;SDS011;24805;55.852;37.644;2022-08-20T02:04:22;17.27;;;14.15;;
39050;SDS011;24805;55.852;37.644;2022-08-20T02:09:26;19.67;;;13.88;;
39050;SDS011;24805;55.852;37.644;2022-08-20T02:14:31;19.63;;;13.10;;
39050;SDS011;24805;55.852;37.644;2022-08-20T02:19:34;18.02;;;12.38;;
39050;SDS011;24805;55.852;37.644;2022-08-20T02:24:40;14.70;;;11.18;;
39050;SDS011;24805;55.852;37.644;2022-08-20T02:29:42;18.40;;;11.45;;
39050;SDS011;24805;55.852;37.644;2022-08-20T02:34:44;15.75;;;11.35;;
39050;SDS011;24805;55.852;37.644;2022-08-20T02:39:46;14.38;;;10.75;;
39050;SDS011;24805;55.852;37.644;2022-08-20T02:44:48;18.70;;;11.43;;
39050;SDS011;24805;55.852;37.644;2022-08-20T02:49:50;18.42;;;11.23;;
39050;SDS011;24805;55.852;37.644;2022-08-20T02:54:53;17.67;;;12.07;;
39050;SDS011;24805;55.852;37.644;2022-08-20T02:59:55;18.88;;;12.07;;
39050;SDS011;24805;55.852;37.644;2022-08-20T03:04:57;21.55;;;14.23;;
39050;SDS011;24805;55.852;37.644;2022-08-20T03:09:59;24.77;;;15.77;;
39050;SDS011;24805;55.852;37.644;2022-08-20T03:15:04;24.55;;;16.67;;
39050;SDS011;24805;55.852;37.644;2022-08-20T03:20:18;30.27;;;16.83;;
39050;SDS011;24805;55.852;37.644;2022-08-20T03:25:25;25.40;;;17.38;;
39050;SDS011;24805;55.852;37.644;2022-08-20T03:30:27;24.77;;;16.92;;
39050;SDS011;24805;55.852;37.644;2022-08-20T03:35:31;21.75;;;16.02;;
39050;SDS011;24805;55.852;37.644;2022-08-20T03:40:34;19.65;;;13.57;;
39050;SDS011;24805;55.852;37.644;2022-08-20T03:45:39;24.05;;;12.45;;
39050;SDS011;24805;55.852;37.644;2022-08-20T03:50:44;19.05;;;10.88;;
39050;SDS011;24805;55.852;37.644;2022-08-20T03:55:49;15.82;;;9.95;;
39050;SDS011;24805;55.852;37.644;2022-08-20T04:00:58;18.42;;;9.73;;
39050;SDS011;24805;55.852;37.644;2022-08-20T04:06:02;13.00;;;8.63;;
39050;SDS011;24805;55.852;37.644;2022-08-20T04:11:04;15.68;;;8.30;;
39050;SDS011;24805;55.852;37.644;2022-08-20T04:16:06;18.25;;;7.72;;
39050;SDS011;24805;55.852;37.644;2022-08-20T04:21:15;11.60;;;6.57;;
39050;SDS011;24805;55.852;37.644;2022-08-20T04:26:17;12.43;;;6.10;;
39050;SDS011;24805;55.852;37.644;2022-08-20T04:31:20;13.10;;;6.07;;
39050;SDS011;24805;55.852;37.644;2022-08-20T04:36:26;12.68;;;6.00;;
39050;SDS011;24805;55.852;37.644;2022-08-20T04:41:28;13.98;;;5.82;;
39050;SDS011;24805;55.852;37.644;2022-08-20T04:46:30;10.20;;;5.28;;
39050;SDS011;24805;55.852;37.644;2022-08-20T04:51:33;18.23;;;5.63;;
39050;SDS011;24805;55.852;37.644;2022-08-20T04:56:37;13.85;;;5.10;;
39050;SDS011;24805;55.852;37.644;2022-08-20T05:01:40;17.27;;;5.70;;
39050;SDS011;24805;55.852;37.644;2022-08-20T05:06:42;11.98;;;4.47;;
39050;SDS011;24805;55.852;37.644;2022-08-20T05:11:45;8.60;;;4.53;;
39050;SDS011;24805;55.852;37.644;2022-08-20T05:16:47;15.07;;;4.90;;
39050;SDS011;24805;55.852;37.644;2022-08-20T05:21:51;12.80;;;5.47;;
39050;SDS011;24805;55.852;37.644;2022-08-20T05:26:54;11.85;;;4.78;;
39050;SDS011;24805;55.852;37.644;2022-08-20T05:31:56;10.25;;;5.22;;
39050;SDS011;24805;55.852;37.644;2022-08-20T05:36:58;12.57;;;5.30;;
39050;SDS011;24805;55.852;37.644;2022-08-20T05:42:08;11.00;;;6.30;;
39050;SDS011;24805;55.852;37.644;2022-08-20T05:47:12;14.82;;;5.70;;
39050;SDS011;24805;55.852;37.644;2022-08-20T05:52:14;9.05;;;5.07;;
39050;SDS011;24805;55.852;37.644;2022-08-20T05:57:17;11.63;;;5.22;;
39050;SDS011;24805;55.852;37.644;2022-08-20T06:02:20;16.33;;;5.18;;
39050;SDS011;24805;55.852;37.644;2022-08-20T06:07:41;11.25;;;3.90;;
39050;SDS011;24805;55.852;37.644;2022-08-20T06:12:43;10.82;;;3.55;;
39050;SDS011;24805;55.852;37.644;2022-08-20T06:17:46;9.60;;;4.10;;
39050;SDS011;24805;55.852;37.644;2022-08-20T06:22:59;11.77;;;3.83;;
39050;SDS011;24805;55.852;37.644;2022-08-20T06:28:01;9.73;;;3.67;;
39050;SDS011;24805;55.852;37.644;2022-08-20T06:33:04;9.07;;;3.00;;
39050;SDS011;24805;55.852;37.644;2022-08-20T06:38:08;9.65;;;2.92;;
39050;SDS011;24805;55.852;37.644;2022-08-20T06:43:11;11.95;;;2.75;;
39050;SDS011;24805;55.852;37.644;2022-08-20T06:48:14;11.73;;;2.80;;
39050;SDS011;24805;55.852;37.644;2022-08-20T06:53:18;8.07;;;3.30;;
39050;SDS011;24805;55.852;37.644;2022-08-20T06:58:21;10.68;;;3.40;;
39050;SDS011;24805;55.852;37.644;2022-08-20T07:03:39;6.30;;;2.63;;
39050;SDS011;24805;55.852;37.644;2022-08-20T07:08:56;11.00;;;2.58;;
39050;SDS011;24805;55.852;37.644;2022-08-20T07:13:58;8.30;;;2.83;;
39050;SDS011;24805;55.852;37.644;2022-08-20T07:19:02;9.02;;;2.30;;
39050;SDS011;24805;55.852;37.644;2022-08-20T07:24:04;6.00;;;2.15;;
39050;SDS011;24805;55.852;37.644;2022-08-20T07:29:07;8.07;;;2.50;;
39050;SDS011;24805;55.852;37.644;2022-08-20T07:34:09;8.05;;;2.58;;
39050;SDS011;24805;55.852;37.644;2022-08-20T07:39:12;9.55;;;2.95;;
39050;SDS011;24805;55.852;37.644;2022-08-20T07:44:15;8.45;;;2.20;;
39050;SDS011;24805;55.852;37.644;2022-08-20T07:49:18;9.57;;;2.78;;
39050;SDS011;24805;55.852;37.644;2022-08-20T07:54:20;9.40;;;2.58;;
39050;SDS011;24805;55.852;37.644;2022-08-20T07:59:22;7.32;;;2.50;;
39050;SDS011;24805;55.852;37.644;2022-08-20T08:04:24;8.57;;;2.85;;
39050;SDS011;24805;55.852;37.644;2022-08-20T08:09:27;8.43;;;2.83;;
39050;SDS011;24805;55.852;37.644;2022-08-20T08:14:30;4.60;;;2.42;;
39050;SDS011;24805;55.852;37.644;2022-08-20T08:19:36;10.93;;;2.67;;
39050;SDS011;24805;55.852;37.644;2022-08-20T08:24:43;9.52;;;2.25;;
39050;SDS011;24805;55.852;37.644;2022-08-20T08:29:58;6.97;;;2.35;;
39050;SDS011;24805;55.852;37.644;2022-08-20T08:35:04;5.85;;;2.05;;
39050;SDS011;24805;55.852;37.644;2022-08-20T08:40:09;7.45;;;2.10;;
39050;SDS011;24805;55.852;37.644;2022-08-20T08:45:12;4.22;;;2.08;;
39050;SDS011;24805;55.852;37.644;2022-08-20T08:50:20;8.43;;;2.85;;
39050;SDS011;24805;55.852;37.644;2022-08-20T08:55:46;8.20;;;2.75;;
39050;SDS011;24805;55.852;37.644;2022-08-20T09:00:49;8.35;;;2.80;;
39050;SDS011;24805;55.852;37.644;2022-08-20T09:05:58;10.85;;;4.85;;
39050;SDS011;24805;55.852;37.644;2022-08-20T09:11:03;10.70;;;2.47;;
39050;SDS011;24805;55.852;37.644;2022-08-20T09:16:06;10.48;;;2.80;;
39050;SDS011;24805;55.852;37.644;2022-08-20T09:21:09;10.13;;;3.28;;
39050;SDS011;24805;55.852;37.644;2022-08-20T09:26:11;8.45;;;4.18;;
39050;SDS011;24805;55.852;37.644;2022-08-20T09:31:14;12.85;;;3.45;;
39050;SDS011;24805;55.852;37.644;2022-08-20T09:36:18;10.30;;;3.05;;
39050;SDS011;24805;55.852;37.644;2022-08-20T09:41:33;12.50;;;4.18;;
39050;SDS011;24805;55.852;37.644;2022-08-20T09:46:35;13.27;;;4.85;;
39050;SDS011;24805;55.852;37.644;2022-08-20T09:51:37;10.98;;;5.53;;
39050;SDS011;24805;55.852;37.644;2022-08-20T09:56:40;13.73;;;5.55;;
39050;SDS011;24805;55.852;37.644;2022-08-20T10:01:42;19.13;;;10.43;;
39050;SDS011;24805;55.852;37.644;2022-08-20T10:06:44;18.65;;;7.53;;
39050;SDS011;24805;55.852;37.644;2022-08-20T10:11:47;14.65;;;5.97;;
39050;SDS011;24805;55.852;37.644;2022-08-20T10:16:53;8.48;;;5.22;;
39050;SDS011;24805;55.852;37.644;2022-08-20T10:22:00;13.20;;;5.50;;
39050;SDS011;24805;55.852;37.644;2022-08-20T10:27:03;20.60;;;7.07;;
39050;SDS011;24805;55.852;37.644;2022-08-20T10:32:09;10.82;;;6.97;;
39050;SDS011;24805;55.852;37.644;2022-08-20T10:37:14;13.13;;;6.78;;
39050;SDS011;24805;55.852;37.644;2022-08-20T10:42:18;11.30;;;5.07;;
39050;SDS011;24805;55.852;37.644;2022-08-20T10:47:24;9.07;;;4.57;;
39050;SDS011;24805;55.852;37.644;2022-08-20T10:52:29;6.22;;;4.18;;
39050;SDS011;24805;55.852;37.644;2022-08-20T10:57:32;9.57;;;4.32;;
39050;SDS011;24805;55.852;37.644;2022-08-20T11:02:35;9.82;;;4.10;;
39050;SDS011;24805;55.852;37.644;2022-08-20T11:07:38;10.13;;;3.38;;
39050;SDS011;24805;55.852;37.644;2022-08-20T11:13:00;11.07;;;3.70;;
39050;SDS011;24805;55.852;37.644;2022-08-20T11:18:05;6.82;;;3.15;;
39050;SDS011;24805;55.852;37.644;2022-08-20T11:23:07;10.23;;;3.58;;
39050;SDS011;24805;55.852;37.644;2022-08-20T11:28:09;8.40;;;3.78;;
39050;SDS011;24805;55.852;37.644;2022-08-20T11:33:13;8.95;;;3.33;;
39050;SDS011;24805;55.852;37.644;2022-08-20T11:38:16;8.00;;;2.85;;
39050;SDS011;24805;55.852;37.644;2022-08-20T11:43:19;7.68;;;2.38;;
39050;SDS011;24805;55.852;37.644;2022-08-20T11:48:21;5.13;;;2.55;;
39050;SDS011;24805;55.852;37.644;2022-08-20T11:53:23;11.98;;;3.28;;
39050;SDS011;24805;55.852;37.644;2022-08-20T11:58:26;4.28;;;2.50;;
39050;SDS011;24805;55.852;37.644;2022-08-20T12:03:28;7.55;;;2.85;;
39050;SDS011;24805;55.852;37.644;2022-08-20T12:08:31;6.90;;;2.53;;
39050;SDS011;24805;55.852;37.644;2022-08-20T12:13:34;9.10;;;2.40;;
39050;SDS011;24805;55.852;37.644;2022-08-20T12:18:49;9.88;;;2.63;;
39050;SDS011;24805;55.852;37.644;2022-08-20T12:23:52;5.43;;;2.13;;
39050;SDS011;24805;55.852;37.644;2022-08-20T12:28:54;11.80;;;2.05;;
39050;SDS011;24805;55.852;37.644;2022-08-20T12:33:57;7.80;;;2.72;;
39050;SDS011;24805;55.852;37.644;2022-08-20T12:38:59;9.45;;;3.25;;
39050;SDS011;24805;55.852;37.644;2022-08-20T12:44:01;10.65;;;2.97;;
39050;SDS011;24805;55.852;37.644;2022-08-20T12:49:16;8.48;;;2.38;;
39050;SDS011;24805;55.852;37.644;2022-08-20T12:54:18;7.45;;;1.88;;
39050;SDS011;24805;55.852;37.644;2022-08-20T12:59:21;6.03;;;1.90;;
39050;SDS011;24805;55.852;37.644;2022-08-20T13:04:26;9.30;;;2.35;;
39050;SDS011;24805;55.852;37.644;2022-08-20T13:09:29;7.82;;;1.90;;
39050;SDS011;24805;55.852;37.644;2022-08-20T13:14:32;9.63;;;2.53;;
39050;SDS011;24805;55.852;37.644;2022-08-20T13:19:36;5.65;;;2.20;;
39050;SDS011;24805;55.852;37.644;2022-08-20T13:24:39;16.83;;;2.83;;
39050;SDS011;24805;55.852;37.644;2022-08-20T13:29:48;6.72;;;3.08;;
39050;SDS011;24805;55.852;37.644;2022-08-20T13:34:58;12.48;;;3.15;;
39050;SDS011;24805;55.852;37.644;2022-08-20T13:40:00;8.77;;;2.83;;
39050;SDS011;24805;55.852;37.644;2022-08-20T13:45:03;11.63;;;3.17;;
39050;SDS011;24805;55.852;37.644;2022-08-20T13:50:11;9.02;;;3.15;;
39050;SDS011;24805;55.852;37.644;2022-08-20T13:55:20;9.35;;;2.80;;
39050;SDS011;24805;55.852;37.644;2022-08-20T14:00:27;8.07;;;3.22;;
39050;SDS011;24805;55.852;37.644;2022-08-20T14:05:33;7.20;;;2.90;;
39050;SDS011;24805;55.852;37.644;2022-08-20T14:10:36;8.27;;;2.78;;
39050;SDS011;24805;55.852;37.644;2022-08-20T14:15:38;8.00;;;3.03;;
39050;SDS011;24805;55.852;37.644;2022-08-20T14:20:42;5.88;;;2.47;;
39050;SDS011;24805;55.852;37.644;2022-08-20T14:25:46;10.25;;;3.00;;
39050;SDS011;24805;55.852;37.644;2022-08-20T14:30:50;10.50;;;3.42;;
39050;SDS011;24805;55.852;37.644;2022-08-20T14:35:54;5.45;;;2.50;;
39050;SDS011;24805;55.852;37.644;2022-08-20T14:40:56;5.65;;;2.30;;
39050;SDS011;24805;55.852;37.644;2022-08-20T14:45:58;7.55;;;2.10;;
39050;SDS011;24805;55.852;37.644;2022-08-20T14:51:00;7.88;;;2.25;;
39050;SDS011;24805;55.852;37.644;2022-08-20T14:56:03;13.38;;;2.85;;
39050;SDS011;24805;55.852;37.644;2022-08-20T15:01:06;11.57;;;4.72;;
39050;SDS011;24805;55.852;37.644;2022-08-20T15:06:08;8.00;;;2.22;;
39050;SDS011;24805;55.852;37.644;2022-08-20T15:11:22;11.10;;;2.03;;
39050;SDS011;24805;55.852;37.644;2022-08-20T15:16:25;4.85;;;1.73;;
39050;SDS011;24805;55.852;37.644;2022-08-20T15:21:29;5.75;;;1.63;;
39050;SDS011;24805;55.852;37.644;2022-08-20T15:26:46;5.80;;;1.80;;
39050;SDS011;24805;55.852;37.644;2022-08-20T15:31:49;4.35;;;1.50;;
39050;SDS011;24805;55.852;37.644;2022-08-20T15:36:52;6.03;;;1.30;;
39050;SDS011;24805;55.852;37.644;2022-08-20T15:41:54;7.63;;;2.47;;
39050;SDS011;24805;55.852;37.644;2022-08-20T15:47:00;7.00;;;2.83;;
39050;SDS011;24805;55.852;37.644;2022-08-20T15:52:24;8.82;;;1.98;;
39050;SDS011;24805;55.852;37.644;2022-08-20T16:14:13;9.35;;;2.40;;
39050;SDS011;24805;55.852;37.644;2022-08-20T16:19:21;7.80;;;2.60;;
39050;SDS011;24805;55.852;37.644;2022-08-20T16:24:26;6.78;;;2.95;;
39050;SDS011;24805;55.852;37.644;2022-08-20T16:40:31;5.72;;;2.92;;
39050;SDS011;24805;55.852;37.644;2022-08-20T16:46:03;8.73;;;2.53;;
39050;SDS011;24805;55.852;37.644;2022-08-20T16:51:17;10.60;;;2.73;;
39050;SDS011;24805;55.852;37.644;2022-08-20T16:56:32;7.78;;;2.67;;
39050;SDS011;24805;55.852;37.644;2022-08-20T17:01:35;8.65;;;6.38;;
39050;SDS011;24805;55.852;37.644;2022-08-20T17:06:40;10.82;;;5.82;;
39050;SDS011;24805;55.852;37.644;2022-08-20T17:11:47;5.90;;;2.55;;
39050;SDS011;24805;55.852;37.644;2022-08-20T17:16:50;8.68;;;2.80;;
39050;SDS011;24805;55.852;37.644;2022-08-20T17:21:54;7.00;;;3.78;;
39050;SDS011;24805;55.852;37.644;2022-08-20T17:27:02;5.65;;;2.83;;
39050;SDS011;24805;55.852;37.644;2022-08-20T17:32:14;6.90;;;2.70;;
39050;SDS011;24805;55.852;37.644;2022-08-20T17:37:27;6.80;;;2.80;;
39050;SDS011;24805;55.852;37.644;2022-08-20T17:42:43;7.50;;;2.47;;
39050;SDS011;24805;55.852;37.644;2022-08-20T17:47:58;8.45;;;2.45;;
39050;SDS011;24805;55.852;37.644;2022-08-20T17:58:32;7.63;;;2.45;;
39050;SDS011;24805;55.852;37.644;2022-08-20T18:03:38;7.45;;;2.60;;
39050;SDS011;24805;55.852;37.644;2022-08-20T18:08:48;6.78;;;3.13;;
39050;SDS011;24805;55.852;37.644;2022-08-20T18:14:04;8.38;;;2.55;;
39050;SDS011;24805;55.852;37.644;2022-08-20T18:19:13;10.32;;;2.90;;
39050;SDS011;24805;55.852;37.644;2022-08-20T18:24:25;6.03;;;2.88;;
39050;SDS011;24805;55.852;37.644;2022-08-20T18:34:40;6.20;;;2.92;;
39050;SDS011;24805;55.852;37.644;2022-08-20T18:39:43;7.28;;;2.80;;
39050;SDS011;24805;55.852;37.644;2022-08-20T18:44:48;9.75;;;3.30;;
39050;SDS011;24805;55.852;37.644;2022-08-20T19:00:37;6.00;;;3.40;;
39050;SDS011;24805;55.852;37.644;2022-08-20T19:16:32;13.52;;;3.25;;
39050;SDS011;24805;55.852;37.644;2022-08-20T19:21:37;10.73;;;3.08;;
39050;SDS011;24805;55.852;37.644;2022-08-20T19:26:45;8.95;;;3.20;;
39050;SDS011;24805;55.852;37.644;2022-08-20T19:31:59;8.85;;;3.20;;
39050;SDS011;24805;55.852;37.644;2022-08-20T19:37:04;7.33;;;3.17;;
39050;SDS011;24805;55.852;37.644;2022-08-20T19:42:34;6.13;;;3.03;;
39050;SDS011;24805;55.852;37.644;2022-08-20T19:47:51;5.45;;;2.67;;
39050;SDS011;24805;55.852;37.644;2022-08-20T19:58:31;10.15;;;2.88;;
39050;SDS011;24805;55.852;37.644;2022-08-20T20:03:35;8.02;;;2.70;;
39050;SDS011;24805;55.852;37.644;2022-08-20T20:08:39;6.00;;;3.47;;
39050;SDS011;24805;55.852;37.644;2022-08-20T20:13:45;8.60;;;3.00;;
39050;SDS011;24805;55.852;37.644;2022-08-20T20:18:47;9.35;;;3.03;;
39050;SDS011;24805;55.852;37.644;2022-08-20T20:24:10;9.75;;;4.90;;
39050;SDS011;24805;55.852;37.644;2022-08-20T20:29:24;6.85;;;3.28;;
39050;SDS011;24805;55.852;37.644;2022-08-20T20:34:30;7.63;;;3.47;;
39050;SDS011;24805;55.852;37.644;2022-08-20T20:40:05;7.82;;;3.95;;
39050;SDS011;24805;55.852;37.644;2022-08-20T20:45:29;6.97;;;4.03;;
39050;SDS011;24805;55.852;37.644;2022-08-20T20:50:38;9.25;;;3.15;;
39050;SDS011;24805;55.852;37.644;2022-08-20T20:55:40;7.93;;;3.50;;
39050;SDS011;24805;55.852;37.644;2022-08-20T21:00:55;8.75;;;3.20;;
39050;SDS011;24805;55.852;37.644;2022-08-20T21:05:57;9.68;;;4.50;;
39050;SDS011;24805;55.852;37.644;2022-08-20T21:10:59;11.50;;;4.03;;
39050;SDS011;24805;55.852;37.644;2022-08-20T21:16:02;12.63;;;4.10;;
39050;SDS011;24805;55.852;37.644;2022-08-20T21:21:05;15.23;;;4.72;;
39050;SDS011;24805;55.852;37.644;2022-08-20T21:26:08;9.98;;;4.57;;
39050;SDS011;24805;55.852;37.644;2022-08-20T21:31:11;10.20;;;4.53;;
39050;SDS011;24805;55.852;37.644;2022-08-20T21:36:13;9.98;;;4.72;;
39050;SDS011;24805;55.852;37.644;2022-08-20T21:41:16;12.05;;;7.47;;
39050;SDS011;24805;55.852;37.644;2022-08-20T21:46:18;10.40;;;6.00;;
39050;SDS011;24805;55.852;37.644;2022-08-20T21:51:25;12.60;;;7.53;;
39050;SDS011;24805;55.852;37.644;2022-08-20T21:56:28;13.15;;;8.60;;
39050;SDS011;24805;55.852;37.644;2022-08-20T22:01:35;13.85;;;8.85;;
39050;SDS011;24805;55.852;37.644;2022-08-20T22:06:38;17.60;;;11.65;;
39050;SDS011;24805;55.852;37.644;2022-08-20T22:11:41;18.45;;;11.98;;
39050;SDS011;24805;55.852;37.644;2022-08-20T22:16:43;19.88;;;14.60;;
39050;SDS011;24805;55.852;37.644;2022-08-20T22:21:46;23.92;;;15.80;;
39050;SDS011;24805;55.852;37.644;2022-08-20T22:26:50;25.40;;;16.42;;
39050;SDS011;24805;55.852;37.644;2022-08-20T22:31:52;24.15;;;18.10;;
39050;SDS011;24805;55.852;37.644;2022-08-20T22:36:55;27.45;;;19.73;;
39050;SDS011;24805;55.852;37.644;2022-08-20T22:41:59;34.63;;;22.70;;
39050;SDS011;24805;55.852;37.644;2022-08-20T22:47:03;31.02;;;22.13;;
39050;SDS011;24805;55.852;37.644;2022-08-20T22:52:07;28.58;;;22.27;;
39050;SDS011;24805;55.852;37.644;2022-08-20T22:57:12;30.52;;;23.55;;
39050;SDS011;24805;55.852;37.644;2022-08-20T23:02:16;30.65;;;24.13;;
39050;SDS011;24805;55.852;37.644;2022-08-20T23:07:19;33.72;;;23.70;;
39050;SDS011;24805;55.852;37.644;2022-08-20T23:12:21;38.08;;;24.35;;
39050;SDS011;24805;55.852;37.644;2022-08-20T23:17:24;37.95;;;24.10;;
39050;SDS011;24805;55.852;37.644;2022-08-20T23:22:27;39.72;;;24.73;;
39050;SDS011;24805;55.852;37.644;2022-08-20T23:27:29;31.63;;;24.67;;
39050;SDS011;24805;55.852;37.644;2022-08-20T23:32:33;35.28;;;25.85;;
39050;SDS011;24805;55.852;37.644;2022-08-20T23:37:37;34.28;;;25.92;;
39050;SDS011;24805;55.852;37.644;2022-08-20T23:42:46;36.55;;;26.50;;
39050;SDS011;24805;55.852;37.644;2022-08-20T23:47:48;37.00;;;26.60;;
39050;SDS011;24805;55.852;37.644;2022-08-20T23:52:51;35.38;;;26.50;;
39050;SDS011;24805;55.852;37.644;2022-08-20T23:57:54;37.60;;;25.30;;
